Time;durP1;ratioP1;P1;durP2;ratioP2;P2;SDS_P1;SDS_P2;PMS_P1;PMS_P2;Temp;Humidity;BMP_temperature;BMP_pressure;BME280_temperature;BME280_humidity;BME280_pressure;Samples;Min_cycle;Max_cycle;Signal;HPM_P1;HPM_P2
2022/01/19 00:01:34;;;;;;;16.55;9.10;;;;;;;7.29;70.70;102585.34;5033890;28;20052;-63
2022/01/19 00:04:03;;;;;;;17.13;9.38;;;;;;;7.01;71.47;102583.44;5034737;28;20046;-63
2022/01/19 00:06:30;;;;;;;17.13;9.05;;;;;;;7.18;71.90;102584.34;5031095;28;20058;-64
2022/01/19 00:08:57;;;;;;;16.38;9.18;;;;;;;7.14;71.64;102593.28;5034144;28;20050;-63
2022/01/19 00:11:26;;;;;;;17.42;9.40;;;;;;;7.11;71.64;102591.06;5032132;28;20049;-64
2022/01/19 00:13:53;;;;;;;20.90;9.73;;;;;;;7.25;71.28;102587.78;5021046;28;20056;-63
2022/01/19 00:16:21;;;;;;;19.48;9.52;;;;;;;7.20;71.37;102575.88;5034757;28;20052;-64
2022/01/19 00:18:48;;;;;;;16.88;9.57;;;;;;;7.18;71.73;102572.56;5034032;28;20056;-64
2022/01/19 00:21:15;;;;;;;19.92;9.73;;;;;;;7.26;71.50;102555.69;5034911;28;20049;-64
2022/01/19 00:23:43;;;;;;;16.98;9.45;;;;;;;7.19;71.50;102546.81;5033842;28;20045;-64
2022/01/19 00:26:11;;;;;;;19.50;10.27;;;;;;;7.26;71.36;102518.16;5033008;28;20052;-65
2022/01/19 00:28:38;;;;;;;17.52;10.55;;;;;;;7.24;71.06;102527.72;5033945;28;20491;-64
2022/01/19 00:31:06;;;;;;;17.33;10.00;;;;;;;7.39;70.88;102515.09;5033779;28;20056;-64
2022/01/19 00:33:34;;;;;;;18.15;10.60;;;;;;;7.61;69.43;102504.22;5034395;28;20060;-62
2022/01/19 00:36:01;;;;;;;20.58;10.40;;;;;;;7.37;70.16;102498.09;5031676;28;20038;-62
2022/01/19 00:38:29;;;;;;;21.60;10.48;;;;;;;7.39;70.25;102501.38;5018936;28;20049;-63
2022/01/19 00:40:57;;;;;;;17.67;11.30;;;;;;;7.19;70.40;102505.69;5045902;28;20153;-63
2022/01/19 00:43:25;;;;;;;20.70;10.80;;;;;;;7.02;70.97;102519.38;5030595;28;20620;-62
2022/01/19 00:45:52;;;;;;;25.63;11.45;;;;;;;7.22;70.68;102522.47;5033218;28;20049;-63
2022/01/19 00:48:27;;;;;;;17.75;9.93;;;;;;;7.15;71.29;102526.47;5034321;28;20057;-62
2022/01/19 00:50:56;;;;;;;18.48;11.13;;;;;;;7.08;71.18;102520.31;5034586;28;20038;-63
2022/01/19 00:53:24;;;;;;;24.38;11.23;;;;;;;7.35;70.51;102518.59;5034601;28;20073;-63
2022/01/19 00:55:52;;;;;;;20.85;10.70;;;;;;;7.12;70.26;102536.00;5016945;28;20049;-62
2022/01/19 00:58:19;;;;;;;19.27;10.38;;;;;;;7.16;70.17;102542.66;5032565;28;20065;-63
2022/01/19 01:00:47;;;;;;;19.92;9.85;;;;;;;7.05;70.65;102529.84;5037978;28;20049;-63
2022/01/19 01:03:15;;;;;;;18.52;10.23;;;;;;;7.02;70.72;102518.53;5037188;28;20059;-62
2022/01/19 01:05:43;;;;;;;21.45;10.55;;;;;;;7.16;70.68;102519.91;5038355;28;20053;-62
2022/01/19 01:08:11;;;;;;;18.48;9.90;;;;;;;7.35;69.80;102513.94;5036330;28;20050;-63
2022/01/19 01:10:42;;;;;;;16.65;10.43;;;;;;;7.47;69.44;102511.94;5038128;28;20046;-62
2022/01/19 01:15:25;;;;;;;20.15;10.45;;;;;;;7.46;68.86;102503.97;5037978;28;20076;-63
2022/01/19 01:16:05;;;;;;;16.58;10.27;;;;;;;7.20;69.47;102490.94;5034414;28;20057;-62
2022/01/19 01:18:34;;;;;;;18.27;10.40;;;;;;;7.37;69.45;102487.13;5036648;28;20061;-62
2022/01/19 01:21:04;;;;;;;19.98;10.50;;;;;;;7.09;70.27;102478.97;5020561;28;20053;-64
2022/01/19 01:23:33;;;;;;;19.25;10.73;;;;;;;7.32;69.51;102469.75;5018078;28;20060;-62
2022/01/19 01:26:00;;;;;;;18.70;10.30;;;;;;;7.26;69.94;102470.75;5013562;28;20527;-62
2022/01/19 01:28:28;;;;;;;19.00;10.90;;;;;;;7.06;69.79;102475.88;5017842;28;20380;-62
2022/01/19 01:30:55;;;;;;;18.27;10.27;;;;;;;7.25;70.03;102480.06;5012471;28;20041;-63
2022/01/19 01:33:23;;;;;;;18.67;10.35;;;;;;;7.26;69.67;102485.28;5036504;28;20060;-64
2022/01/19 01:35:51;;;;;;;17.73;10.63;;;;;;;7.12;69.75;102481.19;5020202;28;20049;-63
2022/01/19 01:38:21;;;;;;;19.15;10.95;;;;;;;7.31;69.17;102487.25;5036049;28;20056;-62
2022/01/19 01:41:12;;;;;;;21.77;11.45;;;;;;;7.28;69.31;102487.78;5036320;28;20057;-63
2022/01/19 01:43:42;;;;;;;20.65;10.50;;;;;;;7.23;69.47;102487.69;5020050;28;20056;-64
2022/01/19 01:46:22;;;;;;;18.75;10.50;;;;;;;7.36;69.10;102484.59;5035827;28;20049;-63
2022/01/19 01:48:50;;;;;;;19.63;11.60;;;;;;;7.07;69.74;102483.00;5037382;28;20412;-63
2022/01/19 01:54:07;;;;;;;18.88;11.32;;;;;;;7.17;69.65;102472.22;5036501;28;20057;-64
2022/01/19 01:56:34;;;;;;;22.15;11.50;;;;;;;7.05;70.28;102479.69;5036215;28;20052;-65
2022/01/19 01:59:04;;;;;;;18.23;10.82;;;;;;;6.99;70.13;102461.50;5036107;28;20054;-63
2022/01/19 02:01:52;;;;;;;21.75;11.63;;;;;;;7.12;69.57;102466.66;5034749;28;20045;-64
2022/01/19 02:04:23;;;;;;;19.88;11.07;;;;;;;7.37;69.51;102458.88;5019883;28;20060;-64
2022/01/19 02:09:33;;;;;;;22.35;11.13;;;;;;;7.06;70.20;102453.97;5014746;28;20505;-67
2022/01/19 02:23:28;;;;;;;19.60;11.15;;;;;;;7.21;69.33;102413.94;5036523;28;20045;-63
2022/01/19 02:25:59;;;;;;;21.05;11.45;;;;;;;7.09;69.81;102405.00;5037107;28;20492;-63
2022/01/19 02:42:08;;;;;;;22.90;12.63;;;;;;;6.94;70.48;102380.06;5016356;28;20065;-63
2022/01/19 02:49:53;;;;;;;19.95;12.55;;;;;;;7.01;70.32;102369.75;5016525;28;20054;-62
2022/01/19 02:52:21;;;;;;;20.13;11.90;;;;;;;7.08;70.01;102367.69;5034119;28;20638;-63
2022/01/19 02:54:50;;;;;;;19.02;11.88;;;;;;;6.94;70.71;102371.84;5036241;28;20053;-63
2022/01/19 02:57:20;;;;;;;30.13;13.20;;;;;;;6.89;70.73;102355.31;5036316;28;20057;-63
2022/01/19 03:10:35;;;;;;;26.17;12.10;;;;;;;7.02;70.49;102351.44;5013954;28;20505;-61
2022/01/19 03:13:02;;;;;;;22.27;12.52;;;;;;;6.90;70.94;102361.66;5014400;28;20513;-63
2022/01/19 03:15:30;;;;;;;26.75;13.20;;;;;;;6.85;71.14;102352.25;5014931;28;20045;-63
2022/01/19 03:17:59;;;;;;;19.90;12.50;;;;;;;6.93;71.07;102347.44;5025926;28;20200;-64
2022/01/19 03:20:28;;;;;;;24.23;13.47;;;;;;;7.05;70.14;102342.69;5035807;28;20049;-62
2022/01/19 03:23:05;;;;;;;19.65;12.98;;;;;;;6.72;71.46;102341.66;5035381;28;20748;-63
2022/01/19 03:25:38;;;;;;;18.92;12.68;;;;;;;6.81;71.36;102350.28;5030391;28;20531;-62
2022/01/19 03:28:06;;;;;;;21.15;13.13;;;;;;;6.73;71.58;102343.28;5015623;28;20145;-63
2022/01/19 03:30:34;;;;;;;20.85;13.05;;;;;;;6.56;71.99;102339.72;5030990;28;20053;-63
2022/01/19 03:33:02;;;;;;;23.65;12.63;;;;;;;6.60;72.14;102337.31;5014504;28;20060;-62
2022/01/19 03:35:29;;;;;;;21.40;13.73;;;;;;;6.62;71.76;102333.28;5014581;28;20056;-63
2022/01/19 03:37:57;;;;;;;23.38;13.38;;;;;;;6.56;72.45;102336.16;5014239;28;20049;-64
2022/01/19 03:40:24;;;;;;;21.65;12.60;;;;;;;6.60;71.93;102342.78;5013940;28;20053;-65
2022/01/19 03:42:53;;;;;;;21.88;12.82;;;;;;;6.69;71.62;102333.91;5030936;28;20624;-63
2022/01/19 03:45:34;;;;;;;22.50;12.88;;;;;;;6.64;72.22;102333.00;5014641;28;20061;-63
2022/01/19 03:50:49;;;;;;;25.65;13.10;;;;;;;6.84;71.70;102325.13;5020335;28;20050;-63
2022/01/19 03:53:16;;;;;;;19.95;13.00;;;;;;;6.79;71.15;102320.41;5041098;28;20044;-63
2022/01/19 03:55:44;;;;;;;21.63;12.75;;;;;;;6.91;70.87;102323.03;5055262;28;20060;-63
2022/01/19 03:58:12;;;;;;;22.60;13.40;;;;;;;6.98;70.83;102320.13;5049198;28;20050;-62
2022/01/19 04:00:42;;;;;;;23.10;13.70;;;;;;;6.87;71.04;102321.88;5016754;28;20060;-63
2022/01/19 04:03:15;;;;;;;23.48;13.27;;;;;;;7.02;70.66;102313.06;5033762;28;20072;-61
2022/01/19 04:05:58;;;;;;;20.08;13.20;;;;;;;6.99;70.38;102306.19;5033786;28;20072;-62
2022/01/19 04:08:25;;;;;;;23.48;13.63;;;;;;;6.95;70.53;102309.69;5030035;28;20060;-64
2022/01/19 04:10:53;;;;;;;24.55;13.63;;;;;;;6.76;70.92;102309.13;5025255;28;20061;-63
2022/01/19 04:13:30;;;;;;;18.90;12.98;;;;;;;6.88;70.67;102307.13;5034029;28;20508;-63
2022/01/19 04:15:58;;;;;;;27.92;14.45;;;;;;;6.86;70.60;102303.78;5033652;28;20045;-62
2022/01/19 04:18:26;;;;;;;22.48;13.48;;;;;;;6.93;70.22;102303.63;5032942;28;20053;-62
2022/01/19 04:20:53;;;;;;;22.83;13.27;;;;;;;6.84;70.61;102312.25;5033566;28;20060;-62
2022/01/19 04:23:25;;;;;;;24.10;13.10;;;;;;;6.98;69.96;102310.00;5033150;28;20061;-62
2022/01/19 04:25:52;;;;;;;20.85;13.98;;;;;;;6.93;69.76;102312.69;5033728;28;20054;-62
2022/01/19 04:28:20;;;;;;;25.42;14.48;;;;;;;6.94;69.99;102311.56;5029358;28;20065;-63
2022/01/19 04:30:50;;;;;;;;;;;;;;;6.77;70.76;102308.88;5014613;28;20053;-63
2022/01/19 04:33:22;;;;;;;23.13;14.00;;;;;;;6.71;70.67;102309.03;5048381;28;20414;-62
2022/01/19 04:35:52;;;;;;;23.60;14.00;;;;;;;6.85;70.88;102313.91;5033565;28;20427;-62
2022/01/19 05:05:52;;;;;;;23.75;14.27;;;;;;;6.64;71.63;102306.44;5029252;28;20065;-64
2022/01/19 05:13:36;;;;;;;24.63;14.70;;;;;;;6.89;70.89;102297.81;5034828;28;20157;-63
2022/01/19 05:16:04;;;;;;;23.05;14.30;;;;;;;7.11;71.12;102292.41;5033306;28;20069;-63
2022/01/19 05:18:32;;;;;;;24.08;13.85;;;;;;;7.07;70.56;102296.72;5033260;28;20076;-63
2022/01/19 05:21:00;;;;;;;20.00;13.65;;;;;;;7.24;69.97;102297.50;5035682;28;20049;-63
2022/01/19 05:23:56;;;;;;;22.17;12.88;;;;;;;7.22;70.28;102294.22;5013101;28;20057;-62
2022/01/19 05:26:23;;;;;;;22.85;13.32;;;;;;;7.18;69.74;102291.16;5029904;28;20440;-62
2022/01/19 05:28:51;;;;;;;21.10;13.55;;;;;;;6.91;70.57;102300.28;5032774;28;20057;-63
2022/01/19 05:31:18;;;;;;;24.85;14.20;;;;;;;7.02;70.09;102302.13;5034312;28;20053;-63
2022/01/19 05:33:45;;;;;;;23.73;13.98;;;;;;;6.73;71.09;102301.38;5033239;28;20049;-63
2022/01/19 05:36:13;;;;;;;21.75;13.90;;;;;;;6.55;71.52;102298.91;5034400;28;20228;-63
2022/01/19 05:39:00;;;;;;;25.15;14.57;;;;;;;6.81;71.13;102304.56;5017898;28;20052;-63
2022/01/19 05:41:47;;;;;;;25.75;15.50;;;;;;;6.70;71.91;102302.72;5034132;28;20504;-62
2022/01/19 05:44:15;;;;;;;24.40;15.23;;;;;;;6.83;71.97;102294.16;5032803;28;20124;-63
2022/01/19 05:46:42;;;;;;;22.42;14.65;;;;;;;6.63;72.02;102296.59;5020303;28;20054;-63
2022/01/19 05:49:10;;;;;;;24.42;16.10;;;;;;;6.81;72.13;102292.75;5035978;28;20058;-63
2022/01/19 05:51:37;;;;;;;25.50;15.80;;;;;;;6.92;71.95;102297.34;5037855;28;20502;-62
2022/01/19 05:54:06;;;;;;;24.77;16.52;;;;;;;7.07;71.06;102288.50;5035864;28;20128;-62
2022/01/19 05:56:33;;;;;;;24.25;15.70;;;;;;;7.02;71.12;102296.63;5034050;28;20062;-63
2022/01/19 05:59:15;;;;;;;25.73;15.85;;;;;;;6.89;71.26;102291.53;5035816;28;20558;-63
2022/01/19 06:01:42;;;;;;;25.63;15.45;;;;;;;6.95;71.53;102301.47;5019265;28;20050;-63
2022/01/19 06:04:10;;;;;;;31.38;16.35;;;;;;;7.31;70.48;102289.94;5036196;28;20053;-62
2022/01/19 06:06:51;;;;;;;27.17;16.63;;;;;;;6.90;71.31;102291.28;5037390;28;20051;-62
2022/01/19 06:09:49;;;;;;;25.40;16.20;;;;;;;6.63;73.40;102293.00;5035823;28;20408;-63
2022/01/19 06:12:18;;;;;;;31.40;17.85;;;;;;;6.67;73.19;102295.03;5036048;28;20531;-63
2022/01/19 06:14:46;;;;;;;28.08;17.95;;;;;;;6.53;73.10;102299.16;5032024;28;20064;-62
2022/01/19 06:17:14;;;;;;;24.70;16.40;;;;;;;6.50;73.60;102287.88;5035419;28;20488;-63
2022/01/19 06:19:41;;;;;;;29.73;17.80;;;;;;;6.60;73.59;102288.03;5034424;28;20061;-62
2022/01/19 06:22:12;;;;;;;26.38;17.27;;;;;;;6.65;73.44;102288.97;5035835;28;20052;-63
2022/01/19 06:24:40;;;;;;;29.98;18.88;;;;;;;6.83;72.88;102296.09;5035506;28;20072;-63
2022/01/19 06:27:07;;;;;;;30.45;18.15;;;;;;;6.47;73.99;102291.94;5036845;28;20052;-62
2022/01/19 06:29:35;;;;;;;30.48;18.73;;;;;;;6.46;74.81;102282.06;5035423;28;20427;-63
2022/01/19 06:32:02;;;;;;;29.40;18.42;;;;;;;6.51;73.89;102295.00;5034365;28;20050;-63
2022/01/19 06:34:30;;;;;;;30.23;18.55;;;;;;;6.18;75.25;102286.75;5035591;28;20041;-64
2022/01/19 06:37:24;;;;;;;29.92;18.63;;;;;;;6.10;76.65;102285.25;5027550;28;20144;-63
2022/01/19 06:40:04;;;;;;;30.92;19.23;;;;;;;6.50;75.99;102282.41;5035597;28;20062;-63
2022/01/19 06:42:36;;;;;;;25.52;17.35;;;;;;;6.62;75.01;102284.00;5035243;28;20094;-62
2022/01/19 06:45:05;;;;;;;32.97;18.80;;;;;;;6.61;75.59;102292.44;5019037;28;20060;-63
2022/01/19 06:47:56;;;;;;;32.60;18.73;;;;;;;6.47;75.55;102291.94;5018067;28;20061;-63
2022/01/19 06:50:24;;;;;;;30.52;18.42;;;;;;;6.55;75.41;102282.50;5030994;28;20057;-63
2022/01/19 06:52:51;;;;;;;28.90;18.63;;;;;;;6.51;75.46;102275.84;5014072;28;20076;-63
2022/01/19 06:55:19;;;;;;;37.00;21.02;;;;;;;6.40;77.23;102294.00;5016712;28;20058;-63
2022/01/19 06:57:46;;;;;;;34.65;19.35;;;;;;;6.42;77.00;102282.78;5037225;28;20049;-63
2022/01/19 07:00:30;;;;;;;36.10;19.33;;;;;;;6.29;77.42;102281.25;5034863;28;20053;-63
2022/01/19 07:03:05;;;;;;;41.08;20.83;;;;;;;6.22;78.41;102283.28;5012458;28;20057;-63
2022/01/19 07:05:43;;;;;;;40.40;20.83;;;;;;;6.20;78.41;102274.50;5019344;28;20042;-63
2022/01/19 07:08:42;;;;;;;39.72;21.77;;;;;;;6.31;78.25;102275.50;5006718;28;20061;-62
2022/01/19 07:11:11;;;;;;;42.50;21.48;;;;;;;6.29;78.52;102277.66;5032646;28;20049;-64
2022/01/19 07:13:38;;;;;;;34.05;19.38;;;;;;;6.32;78.66;102282.63;5034030;28;20052;-63
2022/01/19 07:16:06;;;;;;;34.28;21.48;;;;;;;6.18;79.91;102273.06;5027164;28;20096;-62
2022/01/19 07:18:34;;;;;;;38.28;20.83;;;;;;;6.27;79.97;102277.91;5033402;28;20523;-63
2022/01/19 07:21:02;;;;;;;38.95;21.42;;;;;;;6.31;80.23;102276.31;5033186;28;20049;-63
2022/01/19 07:23:45;;;;;;;39.80;20.63;;;;;;;6.49;80.86;102281.56;5032696;28;20045;-62
2022/01/19 07:26:17;;;;;;;39.47;21.17;;;;;;;6.45;79.95;102274.91;5015607;28;20539;-63
2022/01/19 07:28:44;;;;;;;41.35;22.58;;;;;;;6.52;80.25;102277.53;4994951;28;20311;-63
2022/01/19 07:31:12;;;;;;;40.72;21.70;;;;;;;6.82;86.10;102286.19;5032508;28;20045;-62
2022/01/19 07:33:41;;;;;;;38.95;20.02;;;;;;;7.94;94.95;102274.53;5033998;28;20049;-63
2022/01/19 07:36:08;;;;;;;41.70;20.55;;;;;;;8.46;90.46;102285.78;5032645;28;20057;-63
2022/01/19 07:38:35;;;;;;;37.90;20.50;;;;;;;7.78;79.05;102293.81;5028981;28;20769;-64
2022/01/19 07:41:03;;;;;;;36.15;20.58;;;;;;;7.41;78.87;102296.38;5031431;28;20056;-63
2022/01/19 07:43:34;;;;;;;38.08;20.40;;;;;;;7.41;78.76;102303.78;5030553;28;20041;-65
2022/01/19 07:46:20;;;;;;;37.75;21.33;;;;;;;7.13;78.72;102291.03;5029509;28;20532;-63
2022/01/19 07:49:10;;;;;;;39.90;21.23;;;;;;;7.05;79.62;102286.00;5030998;28;20061;-62
2022/01/19 07:51:46;;;;;;;43.17;21.50;;;;;;;7.20;79.11;102288.16;5037300;28;20049;-62
2022/01/19 07:54:26;;;;;;;41.45;21.65;;;;;;;7.09;79.48;102298.13;5032168;28;20053;-63
2022/01/19 07:57:12;;;;;;;40.58;19.92;;;;;;;6.77;80.12;102294.34;5031753;28;20068;-64
2022/01/19 08:00:06;;;;;;;46.15;20.92;;;;;;;7.13;79.92;102303.94;5034668;28;20420;-64
2022/01/19 08:02:45;;;;;;;48.22;20.90;;;;;;;6.98;79.12;102298.22;5034142;28;20068;-63
2022/01/19 08:05:46;;;;;;;40.00;19.88;;;;;;;7.07;79.46;102308.50;5013513;28;20053;-62
2022/01/19 08:08:14;;;;;;;39.55;18.58;;;;;;;7.10;78.75;102297.03;5031992;28;20420;-63
2022/01/19 08:10:42;;;;;;;45.67;20.60;;;;;;;7.02;79.84;102302.97;5034660;28;20060;-64
2022/01/19 08:13:10;;;;;;;45.90;20.08;;;;;;;7.13;78.73;102298.47;5032631;28;20049;-63
2022/01/19 08:15:37;;;;;;;42.65;19.38;;;;;;;7.25;78.16;102299.19;5016603;28;20049;-62
2022/01/19 08:18:06;;;;;;;36.70;19.70;;;;;;;7.04;78.58;102294.47;5033564;28;20045;-62
2022/01/19 08:20:34;;;;;;;37.28;19.02;;;;;;;7.23;78.49;102298.59;5032945;28;20056;-63
2022/01/19 08:23:03;;;;;;;39.83;18.70;;;;;;;7.39;78.22;102298.53;5033305;28;20045;-63
2022/01/19 08:25:45;;;;;;;41.22;19.25;;;;;;;7.14;78.45;102294.63;5015984;28;20045;-62
2022/01/19 08:28:13;;;;;;;39.22;19.45;;;;;;;7.05;78.85;102304.34;5029860;28;20472;-62
2022/01/19 08:30:40;;;;;;;44.65;20.30;;;;;;;7.17;78.40;102305.91;5018684;28;20045;-64
2022/01/19 08:33:09;;;;;;;42.30;19.70;;;;;;;7.13;78.36;102312.16;5032202;28;20050;-62
2022/01/19 08:35:43;;;;;;;43.25;19.80;;;;;;;7.44;78.29;102315.06;5032886;28;20052;-63
2022/01/19 08:38:29;;;;;;;43.53;19.08;;;;;;;7.53;77.11;102319.00;5033671;28;20053;-62
2022/01/19 08:41:10;;;;;;;38.63;19.67;;;;;;;7.56;77.50;102324.00;5015458;28;20045;-63
2022/01/19 08:43:39;;;;;;;42.83;20.23;;;;;;;7.41;77.45;102325.72;5013992;28;20053;-63
2022/01/19 08:46:07;;;;;;;54.47;19.73;;;;;;;7.41;78.38;102322.97;5033839;28;20065;-62
2022/01/19 08:48:57;;;;;;;40.95;19.20;;;;;;;7.34;78.86;102328.63;5013662;28;20046;-63
2022/01/19 08:51:42;;;;;;;37.70;19.05;;;;;;;7.22;80.12;102332.56;5027417;28;20052;-63
2022/01/19 08:54:19;;;;;;;37.42;19.17;;;;;;;7.06;80.37;102333.41;5032218;28;20628;-62
2022/01/19 08:56:57;;;;;;;40.88;20.33;;;;;;;7.16;79.49;102334.41;5031849;28;20053;-63
2022/01/19 08:59:24;;;;;;;44.80;21.08;;;;;;;7.03;79.26;102337.47;5014895;28;20068;-62
2022/01/19 09:01:52;;;;;;;43.00;21.10;;;;;;;7.08;79.44;102343.03;5033608;28;20049;-62
2022/01/19 09:04:19;;;;;;;44.92;19.58;;;;;;;7.06;78.79;102342.44;5033791;28;20046;-63
2022/01/19 09:06:47;;;;;;;48.92;20.42;;;;;;;7.21;78.41;102344.59;5033587;28;20057;-64
2022/01/19 09:09:15;;;;;;;46.50;20.83;;;;;;;7.20;77.81;102349.25;5023316;28;20469;-63
2022/01/19 09:11:45;;;;;;;48.42;20.67;;;;;;;6.97;78.42;102343.97;5032087;28;20056;-63
2022/01/19 09:14:13;;;;;;;45.75;20.77;;;;;;;6.92;79.33;102351.28;5033803;28;20046;-63
2022/01/19 09:16:40;;;;;;;44.00;21.65;;;;;;;7.06;79.00;102350.66;5031932;28;20049;-63
2022/01/19 09:19:07;;;;;;;44.80;21.70;;;;;;;7.13;78.25;102339.56;5033928;28;20058;-63
2022/01/19 09:21:35;;;;;;;41.60;20.73;;;;;;;7.23;77.89;102339.69;5036803;28;20038;-63
2022/01/19 09:24:02;;;;;;;44.03;21.30;;;;;;;7.11;78.33;102348.03;5037199;28;20057;-63
2022/01/19 09:26:31;;;;;;;43.88;19.88;;;;;;;6.97;78.62;102352.19;5034699;28;20049;-62
2022/01/19 09:28:58;;;;;;;47.08;20.15;;;;;;;7.07;77.98;102340.53;5033672;28;20100;-63
2022/01/19 09:31:34;;;;;;;47.47;20.58;;;;;;;7.16;78.02;102344.53;5034558;28;20056;-62
2022/01/19 09:34:15;;;;;;;43.75;20.88;;;;;;;7.11;78.02;102348.03;5035784;28;20536;-62
2022/01/19 09:36:46;;;;;;;45.75;19.95;;;;;;;7.23;77.53;102356.97;5035743;28;20068;-63
2022/01/19 09:39:21;;;;;;;40.95;20.17;;;;;;;7.03;78.21;102355.81;5018533;28;20065;-61
2022/01/19 09:41:49;;;;;;;44.17;20.63;;;;;;;7.04;78.23;102352.00;5035596;28;20060;-62
2022/01/19 09:44:17;;;;;;;42.33;20.77;;;;;;;7.35;77.64;102356.88;5036115;28;20046;-62
2022/01/19 09:46:45;;;;;;;50.45;22.55;;;;;;;7.31;77.25;102362.03;5036135;28;20052;-63
2022/01/19 09:49:15;;;;;;;72.20;21.40;;;;;;;7.43;76.77;102356.44;5014999;28;20076;-61
2022/01/19 09:51:44;;;;;;;45.00;21.00;;;;;;;7.20;77.32;102345.69;5029598;28;20504;-64
2022/01/19 09:54:22;;;;;;;45.83;20.92;;;;;;;7.12;77.91;102354.31;5030990;28;20053;-63
2022/01/19 09:56:50;;;;;;;49.42;21.75;;;;;;;7.01;78.62;102350.59;5041632;28;20552;-63
2022/01/19 09:59:17;;;;;;;51.10;21.13;;;;;;;7.10;78.27;102348.25;5034826;28;20235;-63
2022/01/19 10:02:04;;;;;;;43.45;20.50;;;;;;;7.07;78.22;102348.75;5035539;28;20056;-62
2022/01/19 10:04:35;;;;;;;46.38;21.83;;;;;;;7.24;77.40;102344.94;5031644;28;20052;-62
2022/01/19 10:07:14;;;;;;;51.03;22.38;;;;;;;7.26;79.02;102347.41;5032729;28;20049;-62
2022/01/19 10:09:47;;;;;;;49.67;22.35;;;;;;;7.56;78.24;102345.94;5035358;28;20060;-62
2022/01/19 10:18:25;;;;;;;40.47;21.42;;;;;;;7.56;77.17;102358.81;5033189;28;20046;-62
2022/01/19 10:21:16;;;;;;;48.30;23.05;;;;;;;7.51;76.57;102351.38;5032364;28;20524;-62
2022/01/19 10:23:52;;;;;;;43.13;22.55;;;;;;;7.48;77.57;102343.63;5036063;28;20420;-62
2022/01/19 10:26:25;;;;;;;51.65;25.13;;;;;;;7.63;76.56;102343.84;5034727;28;20404;-61
2022/01/19 10:29:00;;;;;;;47.03;22.65;;;;;;;7.53;77.56;102340.13;5030504;28;20049;-62
2022/01/19 10:31:28;;;;;;;50.55;23.38;;;;;;;7.61;78.03;102346.00;5034633;28;20056;-62
2022/01/19 10:34:21;;;;;;;43.20;23.77;;;;;;;7.74;77.33;102351.09;5033353;28;20050;-63
2022/01/19 10:36:51;;;;;;;43.95;21.88;;;;;;;7.37;78.87;102360.19;5035852;28;20050;-62
2022/01/19 10:39:20;;;;;;;44.65;24.02;;;;;;;7.57;77.34;102346.75;5025887;28;20420;-62
2022/01/19 10:41:57;;;;;;;51.57;25.23;;;;;;;7.56;77.93;102345.94;5033096;28;20056;-62
2022/01/19 10:44:32;;;;;;;53.53;25.42;;;;;;;7.42;78.25;102333.69;5027706;28;20057;-62
2022/01/19 10:47:39;;;;;;;54.20;26.65;;;;;;;7.52;77.42;102335.72;5050176;28;20046;-61
2022/01/19 10:50:11;;;;;;;51.13;26.83;;;;;;;7.53;77.18;102343.69;5035618;28;20041;-63
2022/01/19 10:52:44;;;;;;;53.70;27.25;;;;;;;7.79;77.14;102336.63;5032687;28;20053;-61
2022/01/19 10:55:33;;;;;;;49.33;26.02;;;;;;;7.91;75.87;102329.91;5034003;28;20385;-62
2022/01/19 10:58:01;;;;;;;78.72;29.85;;;;;;;8.09;75.53;102334.22;5023542;28;20069;-62
2022/01/19 11:00:33;;;;;;;61.50;30.30;;;;;;;7.74;75.82;102331.09;5023893;28;20057;-61
2022/01/19 11:03:17;;;;;;;56.10;30.55;;;;;;;7.67;76.68;102333.19;5031994;28;20056;-62
2022/01/19 11:05:50;;;;;;;59.08;31.42;;;;;;;7.52;77.37;102328.34;5032376;28;20427;-61
2022/01/19 11:08:19;;;;;;;58.33;30.98;;;;;;;7.43;77.48;102324.38;5028965;28;20045;-60
2022/01/19 11:10:52;;;;;;;63.37;31.33;;;;;;;7.54;77.67;102314.38;5035667;28;20488;-61
2022/01/19 11:13:31;;;;;;;55.65;31.48;;;;;;;7.65;77.85;102316.97;5029552;28;20049;-60
2022/01/19 11:16:00;;;;;;;57.72;32.00;;;;;;;7.65;77.56;102318.91;5035112;28;20046;-62
2022/01/19 11:18:32;;;;;;;;;;;;;;;7.57;77.93;102319.34;5014944;28;20552;-61
2022/01/19 11:21:02;;;;;;;58.40;30.02;;;;;;;7.57;78.08;102319.34;5016029;28;19929;-62
2022/01/19 11:24:01;;;;;;;59.45;31.25;;;;;;;7.54;78.55;102317.94;5019723;28;20528;-62
2022/01/19 11:26:30;;;;;;;56.65;31.90;;;;;;;7.60;78.49;102318.84;5028184;28;20489;-61
2022/01/19 11:29:15;;;;;;;62.70;33.53;;;;;;;7.65;77.90;102306.00;5017645;28;20424;-62
2022/01/19 11:31:42;;;;;;;62.30;32.28;;;;;;;7.52;77.84;102306.41;5014607;28;20061;-63
2022/01/19 11:34:10;;;;;;;59.40;31.48;;;;;;;7.19;78.74;102303.75;5015678;28;20402;-63
2022/01/19 11:36:42;;;;;;;66.53;33.72;;;;;;;6.91;80.36;102301.13;5014003;28;20046;-62
2022/01/19 11:39:21;;;;;;;64.65;35.13;;;;;;;7.04;80.75;102302.69;5033340;28;20429;-63
2022/01/19 11:41:54;;;;;;;65.90;33.88;;;;;;;6.94;80.99;102300.63;5030114;28;20045;-62
2022/01/19 11:44:27;;;;;;;62.13;34.60;;;;;;;6.88;81.93;102287.09;5034624;28;20049;-63
2022/01/19 11:47:17;;;;;;;58.42;32.90;;;;;;;6.83;82.44;102294.16;5031499;28;20057;-62
2022/01/19 11:50:03;;;;;;;60.25;32.97;;;;;;;7.13;81.24;102288.31;5035276;28;20057;-62
2022/01/19 11:52:41;;;;;;;56.08;30.13;;;;;;;6.85;81.88;102283.78;5034399;28;20496;-62
2022/01/19 11:55:10;;;;;;;52.22;30.70;;;;;;;6.93;81.96;102276.22;5033487;28;20856;-62
2022/01/19 11:57:40;;;;;;;58.60;31.00;;;;;;;6.91;81.87;102262.78;5034740;28;20075;-61
2022/01/19 12:00:23;;;;;;;59.15;32.58;;;;;;;7.07;81.58;102269.31;5034570;28;20068;-61
2022/01/19 12:02:53;;;;;;;62.65;34.85;;;;;;;7.04;81.60;102269.81;5034280;28;20149;-62
2022/01/19 12:05:41;;;;;;;54.67;30.13;;;;;;;7.23;81.32;102272.03;5018853;28;20075;-63
2022/01/19 12:08:45;;;;;;;47.28;27.00;;;;;;;7.45;80.04;102266.53;5032236;28;20057;-63
2022/01/19 12:11:21;;;;;;;45.10;24.40;;;;;;;7.25;79.27;102263.56;4960584;28;20050;-63
2022/01/19 12:14:19;;;;;;;47.88;27.27;;;;;;;7.22;80.20;102264.88;5025033;28;20064;-62
2022/01/19 12:17:00;;;;;;;44.45;23.27;;;;;;;7.27;79.77;102261.38;5034687;28;20056;-63
2022/01/19 12:19:40;;;;;;;45.00;24.13;;;;;;;7.54;78.82;102257.63;5034653;28;20412;-62
2022/01/19 12:22:17;;;;;;;;;;;;;;;7.56;78.37;102249.13;5032143;28;20056;-63
2022/01/19 12:24:56;;;;;;;41.83;23.63;;;;;;;7.63;78.66;102231.41;5021723;28;19936;-61
2022/01/19 12:27:25;;;;;;;36.65;22.05;;;;;;;7.68;77.72;102238.84;5033418;28;20046;-64
2022/01/19 12:29:58;;;;;;;42.35;22.25;;;;;;;7.77;77.22;102237.31;5034689;28;20058;-62
2022/01/19 12:32:26;;;;;;;39.25;20.98;;;;;;;7.94;76.73;102229.81;5028998;28;20062;-63
2022/01/19 12:35:04;;;;;;;38.13;20.75;;;;;;;7.87;76.76;102245.66;5026472;28;20049;-61
2022/01/19 12:37:40;;;;;;;38.95;20.88;;;;;;;7.53;77.59;102244.97;5038084;28;20507;-64
2022/01/19 12:40:21;;;;;;;35.35;18.85;;;;;;;7.54;77.42;102240.34;5032956;28;20064;-62
2022/01/19 12:42:58;;;;;;;35.97;17.15;;;;;;;7.30;78.65;102244.44;5033329;28;20492;-62
2022/01/19 12:45:48;;;;;;;30.08;17.17;;;;;;;7.88;80.84;102233.56;5030185;28;20053;-60
2022/01/19 12:48:40;;;;;;;34.78;18.85;;;;;;;7.89;77.86;102227.84;5033089;28;20048;-63
2022/01/19 12:51:40;;;;;;;36.78;17.52;;;;;;;7.81;77.70;102222.00;5027496;28;20055;-62
2022/01/19 12:54:09;;;;;;;30.70;17.35;;;;;;;7.74;78.02;102218.66;5039927;28;20062;-63
2022/01/19 12:57:03;;;;;;;33.40;18.95;;;;;;;7.95;77.34;102204.03;5038150;28;20045;-62
2022/01/19 12:59:33;;;;;;;34.72;20.00;;;;;;;8.02;76.21;102220.28;5034591;28;20053;-62
2022/01/19 13:02:01;;;;;;;32.72;17.45;;;;;;;8.30;75.70;102212.59;5035427;28;20060;-63
2022/01/19 13:04:31;;;;;;;37.45;18.38;;;;;;;8.10;75.61;102208.84;5016064;28;20045;-62
2022/01/19 13:07:20;;;;;;;31.05;16.92;;;;;;;8.07;75.38;102199.22;5036371;28;20396;-62
2022/01/19 13:10:22;;;;;;;29.88;17.42;;;;;;;8.22;75.22;102191.09;5035968;28;20597;-61
2022/01/19 13:12:58;;;;;;;32.47;18.33;;;;;;;8.06;75.52;102200.28;5036226;28;20052;-62
2022/01/19 13:15:47;;;;;;;30.73;16.10;;;;;;;7.91;76.14;102205.66;5014364;28;20050;-62